Moyer Aviation Incorporated

Pocono Mountains Airport

188 Airport Drive. Tobyhanna, PA 18466 

P: 570-839-7161
800-321-5890
F: 570-839-7162

Weather

Weather

Pocono Weather

KMPO 232253Z AUTO 27010KT 10SM FEW029 FEW033 FEW085 06/02 A2998 RMK AO2 SLP164 T00610022 $

Allentown Weather

KABE 232251Z 31008KT 10SM OVC100 13/01 A3000 RMK AO2 PK WND 31027/2215 SLP159 T01330006

Wilkes-Barre Weather

KAVP 232254Z 27007KT 10SM BKN075 BKN090 OVC120 09/02 A3001 RMK AO2 SLP164 T00940022


* required field

Contact Us